sensor_id;sensor_type;location;lat;lon;timestamp;temperature;humidity
69731;SHT31;56996;48.138;11.538;2023-10-13T00:02:00;19.68;42.78
69731;SHT31;56996;48.138;11.538;2023-10-13T00:04:32;19.65;42.87
69731;SHT31;56996;48.138;11.538;2023-10-13T00:07:02;19.63;42.93
69731;SHT31;56996;48.138;11.538;2023-10-13T00:09:31;19.61;42.97
69731;SHT31;56996;48.138;11.538;2023-10-13T00:12:04;19.59;42.99
69731;SHT31;56996;48.138;11.538;2023-10-13T00:14:36;19.56;43.09
69731;SHT31;56996;48.138;11.538;2023-10-13T00:17:05;19.51;43.17
69731;SHT31;56996;48.138;11.538;2023-10-13T00:19:42;19.49;43.22
69731;SHT31;56996;48.138;11.538;2023-10-13T00:22:12;19.46;43.29
69731;SHT31;56996;48.138;11.538;2023-10-13T00:24:43;19.46;43.24
69731;SHT31;56996;48.138;11.538;2023-10-13T00:27:17;19.43;42.83
69731;SHT31;56996;48.138;11.538;2023-10-13T00:30:04;19.43;42.72
69731;SHT31;56996;48.138;11.538;2023-10-13T00:32:45;19.42;42.69
69731;SHT31;56996;48.138;11.538;2023-10-13T00:35:20;19.42;42.66
69731;SHT31;56996;48.138;11.538;2023-10-13T00:38:04;19.42;42.60
69731;SHT31;56996;48.138;11.538;2023-10-13T00:40:43;19.43;42.44
69731;SHT31;56996;48.138;11.538;2023-10-13T00:43:18;19.43;42.37
69731;SHT31;56996;48.138;11.538;2023-10-13T00:45:48;19.43;42.41
69731;SHT31;56996;48.138;11.538;2023-10-13T00:48:46;19.44;42.33
69731;SHT31;56996;48.138;11.538;2023-10-13T00:51:19;19.44;42.27
69731;SHT31;56996;48.138;11.538;2023-10-13T00:54:00;19.42;42.29
69731;SHT31;56996;48.138;11.538;2023-10-13T00:56:34;19.42;42.29
69731;SHT31;56996;48.138;11.538;2023-10-13T00:59:28;19.41;42.22
69731;SHT31;56996;48.138;11.538;2023-10-13T01:01:55;19.40;42.26
69731;SHT31;56996;48.138;11.538;2023-10-13T01:04:22;19.39;42.32
69731;SHT31;56996;48.138;11.538;2023-10-13T01:06:54;19.36;42.40
69731;SHT31;56996;48.138;11.538;2023-10-13T01:09:20;19.34;42.56
69731;SHT31;56996;48.138;11.538;2023-10-13T01:11:51;19.32;42.75
69731;SHT31;56996;48.138;11.538;2023-10-13T01:14:19;19.30;42.84
69731;SHT31;56996;48.138;11.538;2023-10-13T01:16:47;19.28;42.91
69731;SHT31;56996;48.138;11.538;2023-10-13T01:19:19;19.25;42.95
69731;SHT31;56996;48.138;11.538;2023-10-13T01:21:51;19.23;43.01
69731;SHT31;56996;48.138;11.538;2023-10-13T01:24:29;19.19;43.12
69731;SHT31;56996;48.138;11.538;2023-10-13T01:27:04;19.17;43.16
69731;SHT31;56996;48.138;11.538;2023-10-13T01:29:46;19.13;43.14
69731;SHT31;56996;48.138;11.538;2023-10-13T01:32:16;19.13;43.13
69731;SHT31;56996;48.138;11.538;2023-10-13T01:34:45;19.11;43.14
69731;SHT31;56996;48.138;11.538;2023-10-13T01:37:13;19.09;43.28
69731;SHT31;56996;48.138;11.538;2023-10-13T01:39:43;19.08;43.32
69731;SHT31;56996;48.138;11.538;2023-10-13T01:42:17;19.07;43.42
69731;SHT31;56996;48.138;11.538;2023-10-13T01:44:48;19.05;43.44
69731;SHT31;56996;48.138;11.538;2023-10-13T01:47:15;19.03;43.43
69731;SHT31;56996;48.138;11.538;2023-10-13T01:49:44;19.00;43.60
69731;SHT31;56996;48.138;11.538;2023-10-13T01:52:17;18.97;43.75
69731;SHT31;56996;48.138;11.538;2023-10-13T01:54:44;18.92;43.73
69731;SHT31;56996;48.138;11.538;2023-10-13T01:57:15;18.88;43.86
69731;SHT31;56996;48.138;11.538;2023-10-13T01:59:48;18.85;44.01
69731;SHT31;56996;48.138;11.538;2023-10-13T02:02:16;18.80;44.13
69731;SHT31;56996;48.138;11.538;2023-10-13T02:04:57;18.78;44.27
69731;SHT31;56996;48.138;11.538;2023-10-13T02:07:27;18.75;44.33
69731;SHT31;56996;48.138;11.538;2023-10-13T02:10:01;18.73;44.45
69731;SHT31;56996;48.138;11.538;2023-10-13T02:12:38;18.69;44.52
69731;SHT31;56996;48.138;11.538;2023-10-13T02:15:12;18.67;44.57
69731;SHT31;56996;48.138;11.538;2023-10-13T02:17:53;18.64;44.72
69731;SHT31;56996;48.138;11.538;2023-10-13T02:20:21;18.62;44.69
69731;SHT31;56996;48.138;11.538;2023-10-13T02:22:57;18.60;44.78
69731;SHT31;56996;48.138;11.538;2023-10-13T02:25:25;18.58;44.80
69731;SHT31;56996;48.138;11.538;2023-10-13T02:28:13;18.52;44.81
69731;SHT31;56996;48.138;11.538;2023-10-13T02:30:41;18.49;44.88
69731;SHT31;56996;48.138;11.538;2023-10-13T02:33:15;18.42;45.00
69731;SHT31;56996;48.138;11.538;2023-10-13T02:35:48;18.40;45.16
69731;SHT31;56996;48.138;11.538;2023-10-13T02:38:22;18.36;45.20
69731;SHT31;56996;48.138;11.538;2023-10-13T02:40:54;18.31;45.26
69731;SHT31;56996;48.138;11.538;2023-10-13T02:43:21;18.27;45.45
69731;SHT31;56996;48.138;11.538;2023-10-13T02:45:52;18.23;45.69
69731;SHT31;56996;48.138;11.538;2023-10-13T02:48:25;18.18;45.90
69731;SHT31;56996;48.138;11.538;2023-10-13T02:50:57;18.13;46.14
69731;SHT31;56996;48.138;11.538;2023-10-13T02:53:29;18.09;46.25
69731;SHT31;56996;48.138;11.538;2023-10-13T02:55:55;18.04;46.49
69731;SHT31;56996;48.138;11.538;2023-10-13T02:58:32;17.98;46.63
69731;SHT31;56996;48.138;11.538;2023-10-13T03:01:05;17.93;46.75
69731;SHT31;56996;48.138;11.538;2023-10-13T03:03:50;17.88;46.94
69731;SHT31;56996;48.138;11.538;2023-10-13T03:06:22;17.84;47.08
69731;SHT31;56996;48.138;11.538;2023-10-13T03:09:03;17.78;47.19
69731;SHT31;56996;48.138;11.538;2023-10-13T03:11:46;17.75;47.16
69731;SHT31;56996;48.138;11.538;2023-10-13T03:14:20;17.71;47.12
69731;SHT31;56996;48.138;11.538;2023-10-13T03:17:01;17.68;47.22
69731;SHT31;56996;48.138;11.538;2023-10-13T03:19:33;17.63;47.17
69731;SHT31;56996;48.138;11.538;2023-10-13T03:22:04;17.58;47.21
69731;SHT31;56996;48.138;11.538;2023-10-13T03:24:39;17.55;47.09
69731;SHT31;56996;48.138;11.538;2023-10-13T03:27:13;17.51;46.98
69731;SHT31;56996;48.138;11.538;2023-10-13T03:29:49;17.48;46.90
69731;SHT31;56996;48.138;11.538;2023-10-13T03:32:22;17.45;46.91
69731;SHT31;56996;48.138;11.538;2023-10-13T03:34:53;17.43;46.90
69731;SHT31;56996;48.138;11.538;2023-10-13T03:37:26;17.42;46.79
69731;SHT31;56996;48.138;11.538;2023-10-13T03:40:06;17.40;46.73
69731;SHT31;56996;48.138;11.538;2023-10-13T03:42:56;17.38;46.79
69731;SHT31;56996;48.138;11.538;2023-10-13T03:48:14;17.31;46.88
69731;SHT31;56996;48.138;11.538;2023-10-13T03:50:53;17.26;46.90
69731;SHT31;56996;48.138;11.538;2023-10-13T03:53:34;17.24;46.97
69731;SHT31;56996;48.138;11.538;2023-10-13T03:56:03;17.21;46.92
69731;SHT31;56996;48.138;11.538;2023-10-13T03:58:39;17.18;46.97
69731;SHT31;56996;48.138;11.538;2023-10-13T04:01:13;17.16;46.95
69731;SHT31;56996;48.138;11.538;2023-10-13T04:03:42;17.15;46.97
69731;SHT31;56996;48.138;11.538;2023-10-13T04:06:31;17.11;46.95
69731;SHT31;56996;48.138;11.538;2023-10-13T04:09:17;17.08;46.98
69731;SHT31;56996;48.138;11.538;2023-10-13T04:12:01;17.07;47.00
69731;SHT31;56996;48.138;11.538;2023-10-13T04:14:40;17.05;47.05
69731;SHT31;56996;48.138;11.538;2023-10-13T04:17:29;17.03;47.16
69731;SHT31;56996;48.138;11.538;2023-10-13T04:20:00;17.01;47.18
69731;SHT31;56996;48.138;11.538;2023-10-13T04:22:34;16.98;47.27
69731;SHT31;56996;48.138;11.538;2023-10-13T04:28:03;16.92;47.38
69731;SHT31;56996;48.138;11.538;2023-10-13T04:30:49;16.89;47.40
69731;SHT31;56996;48.138;11.538;2023-10-13T04:33:28;16.86;47.42
69731;SHT31;56996;48.138;11.538;2023-10-13T04:38:54;16.79;47.63
69731;SHT31;56996;48.138;11.538;2023-10-13T04:41:33;16.77;47.73
69731;SHT31;56996;48.138;11.538;2023-10-13T04:44:16;16.75;47.73
69731;SHT31;56996;48.138;11.538;2023-10-13T04:46:57;16.72;47.59
69731;SHT31;56996;48.138;11.538;2023-10-13T04:49:26;16.68;47.49
69731;SHT31;56996;48.138;11.538;2023-10-13T04:52:10;16.67;47.50
69731;SHT31;56996;48.138;11.538;2023-10-13T04:54:44;16.64;47.46
69731;SHT31;56996;48.138;11.538;2023-10-13T04:57:24;16.63;47.44
69731;SHT31;56996;48.138;11.538;2023-10-13T05:00:13;16.61;47.47
69731;SHT31;56996;48.138;11.538;2023-10-13T05:02:44;16.59;47.51
69731;SHT31;56996;48.138;11.538;2023-10-13T05:05:42;16.59;47.66
69731;SHT31;56996;48.138;11.538;2023-10-13T05:08:45;16.57;47.99
69731;SHT31;56996;48.138;11.538;2023-10-13T05:11:31;16.54;48.20
69731;SHT31;56996;48.138;11.538;2023-10-13T05:14:16;16.51;48.12
69731;SHT31;56996;48.138;11.538;2023-10-13T05:17:02;16.47;48.02
69731;SHT31;56996;48.138;11.538;2023-10-13T05:19:47;16.44;48.08
69731;SHT31;56996;48.138;11.538;2023-10-13T05:22:33;16.39;48.05
69731;SHT31;56996;48.138;11.538;2023-10-13T05:25:18;16.37;48.14
69731;SHT31;56996;48.138;11.538;2023-10-13T05:28:03;16.33;48.24
69731;SHT31;56996;48.138;11.538;2023-10-13T05:31:01;16.28;48.63
69731;SHT31;56996;48.138;11.538;2023-10-13T05:33:48;16.25;48.65
69731;SHT31;56996;48.138;11.538;2023-10-13T05:36:34;16.24;48.60
69731;SHT31;56996;48.138;11.538;2023-10-13T05:39:19;16.22;48.62
69731;SHT31;56996;48.138;11.538;2023-10-13T05:42:05;16.20;48.66
69731;SHT31;56996;48.138;11.538;2023-10-13T05:44:51;16.20;48.52
69731;SHT31;56996;48.138;11.538;2023-10-13T05:47:36;16.18;48.55
69731;SHT31;56996;48.138;11.538;2023-10-13T05:50:23;16.18;48.57
69731;SHT31;56996;48.138;11.538;2023-10-13T05:52:50;16.19;48.51
69731;SHT31;56996;48.138;11.538;2023-10-13T05:55:26;16.20;48.61
69731;SHT31;56996;48.138;11.538;2023-10-13T05:58:23;16.24;48.63
69731;SHT31;56996;48.138;11.538;2023-10-13T06:01:11;16.28;48.59
69731;SHT31;56996;48.138;11.538;2023-10-13T06:03:57;16.32;48.40
69731;SHT31;56996;48.138;11.538;2023-10-13T06:06:43;16.37;48.35
69731;SHT31;56996;48.138;11.538;2023-10-13T06:09:28;16.45;48.32
69731;SHT31;56996;48.138;11.538;2023-10-13T06:12:14;16.53;48.07
69731;SHT31;56996;48.138;11.538;2023-10-13T06:14:59;16.59;47.74
69731;SHT31;56996;48.138;11.538;2023-10-13T06:17:45;16.64;47.46
69731;SHT31;56996;48.138;11.538;2023-10-13T06:20:30;16.69;47.47
69731;SHT31;56996;48.138;11.538;2023-10-13T06:23:15;16.75;47.39
69731;SHT31;56996;48.138;11.538;2023-10-13T06:26:01;16.83;47.30
69731;SHT31;56996;48.138;11.538;2023-10-13T06:28:47;16.90;47.12
69731;SHT31;56996;48.138;11.538;2023-10-13T06:31:15;16.96;46.79
69731;SHT31;56996;48.138;11.538;2023-10-13T06:33:49;17.02;46.86
69731;SHT31;56996;48.138;11.538;2023-10-13T06:36:16;17.05;46.81
69731;SHT31;56996;48.138;11.538;2023-10-13T06:38:44;17.09;46.60
69731;SHT31;56996;48.138;11.538;2023-10-13T06:41:11;17.13;46.66
69731;SHT31;56996;48.138;11.538;2023-10-13T06:43:46;17.17;46.65
69731;SHT31;56996;48.138;11.538;2023-10-13T06:46:26;17.23;46.33
69731;SHT31;56996;48.138;11.538;2023-10-13T06:48:56;17.31;46.27
69731;SHT31;56996;48.138;11.538;2023-10-13T06:51:26;17.42;45.64
69731;SHT31;56996;48.138;11.538;2023-10-13T06:53:58;17.56;45.63
69731;SHT31;56996;48.138;11.538;2023-10-13T06:56:24;17.70;45.16
69731;SHT31;56996;48.138;11.538;2023-10-13T06:58:55;17.88;44.94
69731;SHT31;56996;48.138;11.538;2023-10-13T07:01:26;18.03;44.53
69731;SHT31;56996;48.138;11.538;2023-10-13T07:03:54;18.17;44.56
69731;SHT31;56996;48.138;11.538;2023-10-13T07:06:27;18.28;44.19
69731;SHT31;56996;48.138;11.538;2023-10-13T07:08:54;18.38;44.32
69731;SHT31;56996;48.138;11.538;2023-10-13T07:11:24;18.45;44.16
69731;SHT31;56996;48.138;11.538;2023-10-13T07:14:04;18.52;44.11
69731;SHT31;56996;48.138;11.538;2023-10-13T07:16:42;18.59;43.79
69731;SHT31;56996;48.138;11.538;2023-10-13T07:19:13;18.65;43.63
69731;SHT31;56996;48.138;11.538;2023-10-13T07:21:46;18.72;43.47
69731;SHT31;56996;48.138;11.538;2023-10-13T07:24:13;18.81;43.19
69731;SHT31;56996;48.138;11.538;2023-10-13T07:26:40;18.89;43.55
69731;SHT31;56996;48.138;11.538;2023-10-13T07:29:12;18.95;43.13
69731;SHT31;56996;48.138;11.538;2023-10-13T07:31:40;19.02;43.13
69731;SHT31;56996;48.138;11.538;2023-10-13T07:34:12;19.10;43.04
69731;SHT31;56996;48.138;11.538;2023-10-13T07:36:47;19.17;42.81
69731;SHT31;56996;48.138;11.538;2023-10-13T07:39:16;19.23;42.53
69731;SHT31;56996;48.138;11.538;2023-10-13T07:41:51;19.30;42.62
69731;SHT31;56996;48.138;11.538;2023-10-13T07:44:31;19.38;42.37
69731;SHT31;56996;48.138;11.538;2023-10-13T07:47:02;19.45;42.26
69731;SHT31;56996;48.138;11.538;2023-10-13T07:49:38;19.52;42.18
69731;SHT31;56996;48.138;11.538;2023-10-13T07:52:15;19.59;41.62
69731;SHT31;56996;48.138;11.538;2023-10-13T07:54:51;19.69;41.83
69731;SHT31;56996;48.138;11.538;2023-10-13T07:57:39;19.77;41.55
69731;SHT31;56996;48.138;11.538;2023-10-13T08:00:25;19.86;41.38
69731;SHT31;56996;48.138;11.538;2023-10-13T08:03:04;19.94;40.82
69731;SHT31;56996;48.138;11.538;2023-10-13T08:05:44;20.03;40.94
69731;SHT31;56996;48.138;11.538;2023-10-13T08:08:47;20.14;40.45
69731;SHT31;56996;48.138;11.538;2023-10-13T08:11:20;20.24;40.23
69731;SHT31;56996;48.138;11.538;2023-10-13T08:13:51;20.33;40.04
69731;SHT31;56996;48.138;11.538;2023-10-13T08:16:41;20.44;39.67
69731;SHT31;56996;48.138;11.538;2023-10-13T08:19:21;20.56;39.35
69731;SHT31;56996;48.138;11.538;2023-10-13T08:22:06;20.66;38.82
69731;SHT31;56996;48.138;11.538;2023-10-13T08:24:45;20.75;38.61
69731;SHT31;56996;48.138;11.538;2023-10-13T08:27:20;20.85;38.37
69731;SHT31;56996;48.138;11.538;2023-10-13T08:30:02;20.96;38.07
69731;SHT31;56996;48.138;11.538;2023-10-13T08:32:49;21.07;37.95
69731;SHT31;56996;48.138;11.538;2023-10-13T08:35:21;21.19;37.94
69731;SHT31;56996;48.138;11.538;2023-10-13T08:37:50;21.33;37.95
69731;SHT31;56996;48.138;11.538;2023-10-13T08:40:22;21.51;36.96
69731;SHT31;56996;48.138;11.538;2023-10-13T08:42:53;22.12;36.20
69731;SHT31;56996;48.138;11.538;2023-10-13T08:45:31;23.17;35.19
69731;SHT31;56996;48.138;11.538;2023-10-13T08:48:05;24.21;34.02
69731;SHT31;56996;48.138;11.538;2023-10-13T08:50:49;25.26;32.84
69731;SHT31;56996;48.138;11.538;2023-10-13T08:53:25;26.33;31.81
69731;SHT31;56996;48.138;11.538;2023-10-13T08:56:11;27.43;30.56
69731;SHT31;56996;48.138;11.538;2023-10-13T08:58:40;28.29;29.71
69731;SHT31;56996;48.138;11.538;2023-10-13T09:01:25;29.25;28.79
69731;SHT31;56996;48.138;11.538;2023-10-13T09:04:14;30.10;27.69
69731;SHT31;56996;48.138;11.538;2023-10-13T09:09:53;30.23;26.79
69731;SHT31;56996;48.138;11.538;2023-10-13T09:12:27;30.68;26.17
69731;SHT31;56996;48.138;11.538;2023-10-13T09:14:59;31.36;25.64
69731;SHT31;56996;48.138;11.538;2023-10-13T09:17:47;32.07;24.68
69731;SHT31;56996;48.138;11.538;2023-10-13T09:20:30;32.62;23.99
69731;SHT31;56996;48.138;11.538;2023-10-13T09:23:10;33.24;23.24
69731;SHT31;56996;48.138;11.538;2023-10-13T09:25:46;33.80;22.85
69731;SHT31;56996;48.138;11.538;2023-10-13T09:28:33;34.30;22.14
69731;SHT31;56996;48.138;11.538;2023-10-13T09:30:59;34.58;21.86
69731;SHT31;56996;48.138;11.538;2023-10-13T09:33:27;34.96;21.45
69731;SHT31;56996;48.138;11.538;2023-10-13T09:35:59;35.33;21.03
69731;SHT31;56996;48.138;11.538;2023-10-13T09:38:30;35.73;20.67
69731;SHT31;56996;48.138;11.538;2023-10-13T09:41:06;36.16;20.23
69731;SHT31;56996;48.138;11.538;2023-10-13T09:43:57;36.54;19.77
69731;SHT31;56996;48.138;11.538;2023-10-13T09:46:25;36.91;19.41
69731;SHT31;56996;48.138;11.538;2023-10-13T09:48:58;37.17;19.34
69731;SHT31;56996;48.138;11.538;2023-10-13T09:51:33;37.28;18.81
69731;SHT31;56996;48.138;11.538;2023-10-13T09:54:06;37.10;18.75
69731;SHT31;56996;48.138;11.538;2023-10-13T09:56:48;37.09;18.65
69731;SHT31;56996;48.138;11.538;2023-10-13T09:59:39;37.35;18.35
69731;SHT31;56996;48.138;11.538;2023-10-13T10:02:19;37.62;18.21
69731;SHT31;56996;48.138;11.538;2023-10-13T10:04:53;37.87;17.89
69731;SHT31;56996;48.138;11.538;2023-10-13T10:07:36;38.11;17.67
69731;SHT31;56996;48.138;11.538;2023-10-13T10:10:03;38.31;17.40
69731;SHT31;56996;48.138;11.538;2023-10-13T10:15:28;38.39;17.04
69731;SHT31;56996;48.138;11.538;2023-10-13T10:18:03;38.19;16.84
69731;SHT31;56996;48.138;11.538;2023-10-13T10:20:31;37.80;16.93
69731;SHT31;56996;48.138;11.538;2023-10-13T10:23:12;37.27;16.85
69731;SHT31;56996;48.138;11.538;2023-10-13T10:25:55;36.67;17.16
69731;SHT31;56996;48.138;11.538;2023-10-13T10:28:36;36.13;17.49
69731;SHT31;56996;48.138;11.538;2023-10-13T10:31:09;35.57;17.63
69731;SHT31;56996;48.138;11.538;2023-10-13T10:33:43;35.07;17.59
69731;SHT31;56996;48.138;11.538;2023-10-13T10:36:11;34.32;17.19
69731;SHT31;56996;48.138;11.538;2023-10-13T10:38:54;33.68;17.76
69731;SHT31;56996;48.138;11.538;2023-10-13T10:41:30;33.27;17.75
69731;SHT31;56996;48.138;11.538;2023-10-13T10:44:13;32.80;17.68
69731;SHT31;56996;48.138;11.538;2023-10-13T10:47:09;32.22;18.15
69731;SHT31;56996;48.138;11.538;2023-10-13T10:49:46;31.83;18.43
69731;SHT31;56996;48.138;11.538;2023-10-13T10:52:16;31.47;18.40
69731;SHT31;56996;48.138;11.538;2023-10-13T10:54:47;31.21;18.79
69731;SHT31;56996;48.138;11.538;2023-10-13T10:57:25;31.02;18.85
69731;SHT31;56996;48.138;11.538;2023-10-13T10:59:59;30.83;19.17
69731;SHT31;56996;48.138;11.538;2023-10-13T11:02:39;30.70;19.42
69731;SHT31;56996;48.138;11.538;2023-10-13T11:05:06;30.42;19.60
69731;SHT31;56996;48.138;11.538;2023-10-13T11:07:36;30.23;19.95
69731;SHT31;56996;48.138;11.538;2023-10-13T11:10:07;30.12;20.15
69731;SHT31;56996;48.138;11.538;2023-10-13T11:12:58;29.97;20.25
69731;SHT31;56996;48.138;11.538;2023-10-13T11:15:42;29.81;20.35
69731;SHT31;56996;48.138;11.538;2023-10-13T11:18:13;29.69;20.46
69731;SHT31;56996;48.138;11.538;2023-10-13T11:20:55;29.53;20.49
69731;SHT31;56996;48.138;11.538;2023-10-13T11:23:22;29.35;20.86
69731;SHT31;56996;48.138;11.538;2023-10-13T11:25:58;29.31;21.05
69731;SHT31;56996;48.138;11.538;2023-10-13T11:28:26;29.25;21.11
69731;SHT31;56996;48.138;11.538;2023-10-13T11:30:55;29.14;21.14
69731;SHT31;56996;48.138;11.538;2023-10-13T11:33:25;29.07;21.26
69731;SHT31;56996;48.138;11.538;2023-10-13T11:35:55;28.97;21.30
69731;SHT31;56996;48.138;11.538;2023-10-13T11:38:30;28.86;21.60
69731;SHT31;56996;48.138;11.538;2023-10-13T11:41:15;28.78;21.66
69731;SHT31;56996;48.138;11.538;2023-10-13T11:43:48;28.74;21.64
69731;SHT31;56996;48.138;11.538;2023-10-13T11:46:24;28.71;21.64
69731;SHT31;56996;48.138;11.538;2023-10-13T11:49:03;28.68;21.75
69731;SHT31;56996;48.138;11.538;2023-10-13T11:51:40;28.69;21.60
69731;SHT31;56996;48.138;11.538;2023-10-13T11:54:19;28.67;21.70
69731;SHT31;56996;48.138;11.538;2023-10-13T11:56:50;28.69;21.62
69731;SHT31;56996;48.138;11.538;2023-10-13T11:59:17;28.68;21.49
69731;SHT31;56996;48.138;11.538;2023-10-13T12:01:47;28.68;21.40
69731;SHT31;56996;48.138;11.538;2023-10-13T12:04:35;28.72;21.31
69731;SHT31;56996;48.138;11.538;2023-10-13T12:07:19;28.66;21.29
69731;SHT31;56996;48.138;11.538;2023-10-13T12:09:50;28.65;21.52
69731;SHT31;56996;48.138;11.538;2023-10-13T12:14:48;28.68;21.47
69731;SHT31;56996;48.138;11.538;2023-10-13T12:17:22;28.71;21.65
69731;SHT31;56996;48.138;11.538;2023-10-13T12:20:05;28.75;21.51
69731;SHT31;56996;48.138;11.538;2023-10-13T12:22:37;28.75;21.47
69731;SHT31;56996;48.138;11.538;2023-10-13T12:25:18;28.79;21.55
69731;SHT31;56996;48.138;11.538;2023-10-13T12:27:57;28.83;21.33
69731;SHT31;56996;48.138;11.538;2023-10-13T12:30:24;28.86;21.22
69731;SHT31;56996;48.138;11.538;2023-10-13T12:33:10;28.83;21.47
69731;SHT31;56996;48.138;11.538;2023-10-13T12:35:41;28.82;21.24
69731;SHT31;56996;48.138;11.538;2023-10-13T12:38:25;28.82;21.24
69731;SHT31;56996;48.138;11.538;2023-10-13T12:41:10;28.87;21.40
69731;SHT31;56996;48.138;11.538;2023-10-13T12:44:02;28.91;21.72
69731;SHT31;56996;48.138;11.538;2023-10-13T12:46:50;28.98;21.65
69731;SHT31;56996;48.138;11.538;2023-10-13T12:49:37;29.03;21.47
69731;SHT31;56996;48.138;11.538;2023-10-13T12:52:20;29.05;21.42
69731;SHT31;56996;48.138;11.538;2023-10-13T12:54:52;29.02;22.08
69731;SHT31;56996;48.138;11.538;2023-10-13T12:57:31;29.07;21.74
69731;SHT31;56996;48.138;11.538;2023-10-13T13:00:00;29.03;21.42
69731;SHT31;56996;48.138;11.538;2023-10-13T13:02:28;29.05;21.28
69731;SHT31;56996;48.138;11.538;2023-10-13T13:04:56;29.07;21.10
69731;SHT31;56996;48.138;11.538;2023-10-13T13:07:29;29.02;21.41
69731;SHT31;56996;48.138;11.538;2023-10-13T13:09:56;29.08;21.38
69731;SHT31;56996;48.138;11.538;2023-10-13T13:12:26;29.10;21.20
69731;SHT31;56996;48.138;11.538;2023-10-13T13:14:56;29.17;21.17
69731;SHT31;56996;48.138;11.538;2023-10-13T13:17:23;29.20;21.34
69731;SHT31;56996;48.138;11.538;2023-10-13T13:19:50;29.17;21.16
69731;SHT31;56996;48.138;11.538;2023-10-13T13:22:20;29.18;21.26
69731;SHT31;56996;48.138;11.538;2023-10-13T13:24:47;29.21;21.10
69731;SHT31;56996;48.138;11.538;2023-10-13T13:27:14;29.24;21.15
69731;SHT31;56996;48.138;11.538;2023-10-13T13:29:50;29.28;21.13
69731;SHT31;56996;48.138;11.538;2023-10-13T13:32:17;29.25;21.34
69731;SHT31;56996;48.138;11.538;2023-10-13T13:34:55;29.20;21.05
69731;SHT31;56996;48.138;11.538;2023-10-13T13:37:31;29.16;20.87
69731;SHT31;56996;48.138;11.538;2023-10-13T13:39:58;29.10;20.98
69731;SHT31;56996;48.138;11.538;2023-10-13T13:42:41;29.01;21.07
69731;SHT31;56996;48.138;11.538;2023-10-13T13:45:16;28.97;21.13
69731;SHT31;56996;48.138;11.538;2023-10-13T13:47:54;28.93;21.68
69731;SHT31;56996;48.138;11.538;2023-10-13T13:50:22;28.92;21.86
69731;SHT31;56996;48.138;11.538;2023-10-13T13:52:55;28.87;21.13
69731;SHT31;56996;48.138;11.538;2023-10-13T13:55:23;28.79;21.17
69731;SHT31;56996;48.138;11.538;2023-10-13T13:57:56;28.76;21.22
69731;SHT31;56996;48.138;11.538;2023-10-13T14:00:23;28.71;21.48
69731;SHT31;56996;48.138;11.538;2023-10-13T14:03:04;28.71;21.93
69731;SHT31;56996;48.138;11.538;2023-10-13T14:05:42;28.69;22.14
69731;SHT31;56996;48.138;11.538;2023-10-13T14:08:10;28.65;22.40
69731;SHT31;56996;48.138;11.538;2023-10-13T14:10:41;28.61;22.05
69731;SHT31;56996;48.138;11.538;2023-10-13T14:13:47;28.46;21.64
69731;SHT31;56996;48.138;11.538;2023-10-13T14:16:16;28.40;22.00
69731;SHT31;56996;48.138;11.538;2023-10-13T14:18:45;28.34;22.13
69731;SHT31;56996;48.138;11.538;2023-10-13T14:21:14;28.29;22.44
69731;SHT31;56996;48.138;11.538;2023-10-13T14:23:48;28.21;22.31
69731;SHT31;56996;48.138;11.538;2023-10-13T14:26:20;28.24;22.30
69731;SHT31;56996;48.138;11.538;2023-10-13T14:28:52;28.32;22.16
69731;SHT31;56996;48.138;11.538;2023-10-13T14:31:35;28.30;22.50
69731;SHT31;56996;48.138;11.538;2023-10-13T14:34:08;28.24;22.66
69731;SHT31;56996;48.138;11.538;2023-10-13T14:36:35;28.20;22.48
69731;SHT31;56996;48.138;11.538;2023-10-13T14:39:04;28.14;22.42
69731;SHT31;56996;48.138;11.538;2023-10-13T14:41:38;28.06;22.54
69731;SHT31;56996;48.138;11.538;2023-10-13T14:44:05;27.97;22.46
69731;SHT31;56996;48.138;11.538;2023-10-13T14:46:35;27.85;22.36
69731;SHT31;56996;48.138;11.538;2023-10-13T14:49:02;27.77;22.59
69731;SHT31;56996;48.138;11.538;2023-10-13T14:51:29;27.69;22.76
69731;SHT31;56996;48.138;11.538;2023-10-13T14:53:58;27.59;22.78
69731;SHT31;56996;48.138;11.538;2023-10-13T14:56:30;27.48;22.70
69731;SHT31;56996;48.138;11.538;2023-10-13T14:58:57;27.39;22.86
69731;SHT31;56996;48.138;11.538;2023-10-13T15:01:24;27.33;23.13
69731;SHT31;56996;48.138;11.538;2023-10-13T15:03:54;27.26;23.50
69731;SHT31;56996;48.138;11.538;2023-10-13T15:06:25;27.12;23.34
69731;SHT31;56996;48.138;11.538;2023-10-13T15:08:56;26.98;23.28
69731;SHT31;56996;48.138;11.538;2023-10-13T15:11:25;26.91;23.33
69731;SHT31;56996;48.138;11.538;2023-10-13T15:14:14;26.87;23.34
69731;SHT31;56996;48.138;11.538;2023-10-13T15:16:41;26.84;23.83
69731;SHT31;56996;48.138;11.538;2023-10-13T15:19:10;26.77;24.54
69731;SHT31;56996;48.138;11.538;2023-10-13T15:21:39;26.70;24.94
69731;SHT31;56996;48.138;11.538;2023-10-13T15:24:13;26.64;25.14
69731;SHT31;56996;48.138;11.538;2023-10-13T15:26:44;26.55;25.01
69731;SHT31;56996;48.138;11.538;2023-10-13T15:29:16;26.41;24.97
69731;SHT31;56996;48.138;11.538;2023-10-13T15:31:45;26.29;25.54
69731;SHT31;56996;48.138;11.538;2023-10-13T15:34:32;26.24;26.11
69731;SHT31;56996;48.138;11.538;2023-10-13T15:36:59;26.17;26.44
69731;SHT31;56996;48.138;11.538;2023-10-13T15:39:31;26.08;26.47
69731;SHT31;56996;48.138;11.538;2023-10-13T15:41:58;25.97;26.10
69731;SHT31;56996;48.138;11.538;2023-10-13T15:44:26;25.87;26.79
69731;SHT31;56996;48.138;11.538;2023-10-13T15:46:57;25.77;27.19
69731;SHT31;56996;48.138;11.538;2023-10-13T15:49:30;25.72;27.40
69731;SHT31;56996;48.138;11.538;2023-10-13T15:52:01;25.64;27.80
69731;SHT31;56996;48.138;11.538;2023-10-13T15:54:28;25.55;28.19
69731;SHT31;56996;48.138;11.538;2023-10-13T15:56:55;25.50;28.44
69731;SHT31;56996;48.138;11.538;2023-10-13T15:59:22;25.42;28.57
69731;SHT31;56996;48.138;11.538;2023-10-13T16:01:51;25.31;28.69
69731;SHT31;56996;48.138;11.538;2023-10-13T16:04:25;25.22;28.90
69731;SHT31;56996;48.138;11.538;2023-10-13T16:06:52;25.13;29.11
69731;SHT31;56996;48.138;11.538;2023-10-13T16:09:19;25.04;29.39
69731;SHT31;56996;48.138;11.538;2023-10-13T16:11:51;24.97;29.43
69731;SHT31;56996;48.138;11.538;2023-10-13T16:14:19;24.90;29.67
69731;SHT31;56996;48.138;11.538;2023-10-13T16:16:48;24.79;29.78
69731;SHT31;56996;48.138;11.538;2023-10-13T16:19:20;24.69;29.94
69731;SHT31;56996;48.138;11.538;2023-10-13T16:21:52;24.61;30.08
69731;SHT31;56996;48.138;11.538;2023-10-13T16:24:21;24.54;30.17